sensor_id;sensor_type;location;lat;lon;timestamp;P1;durP1;ratioP1;P2;durP2;ratioP2
3177;SDS011;38141;42.666;23.344;2023-04-24T00:00:37;20.83;;;11.90;;
3177;SDS011;38141;42.666;23.344;2023-04-24T00:03:05;15.83;;;9.70;;
3177;SDS011;38141;42.666;23.344;2023-04-24T00:05:32;14.50;;;9.90;;
3177;SDS011;38141;42.666;23.344;2023-04-24T00:08:01;14.13;;;9.50;;
3177;SDS011;38141;42.666;23.344;2023-04-24T00:10:28;16.20;;;10.33;;
3177;SDS011;38141;42.666;23.344;2023-04-24T00:12:55;14.83;;;9.57;;
3177;SDS011;38141;42.666;23.344;2023-04-24T00:15:22;17.00;;;11.60;;
3177;SDS011;38141;42.666;23.344;2023-04-24T00:17:49;14.87;;;10.47;;
3177;SDS011;38141;42.666;23.344;2023-04-24T00:20:15;17.33;;;10.70;;
3177;SDS011;38141;42.666;23.344;2023-04-24T00:22:42;13.03;;;10.00;;
3177;SDS011;38141;42.666;23.344;2023-04-24T00:25:10;12.60;;;9.70;;
3177;SDS011;38141;42.666;23.344;2023-04-24T00:27:37;14.43;;;8.57;;
3177;SDS011;38141;42.666;23.344;2023-04-24T00:30:04;11.90;;;8.90;;
3177;SDS011;38141;42.666;23.344;2023-04-24T00:32:32;14.43;;;8.77;;
3177;SDS011;38141;42.666;23.344;2023-04-24T00:34:59;25.23;;;16.03;;
3177;SDS011;38141;42.666;23.344;2023-04-24T00:37:26;25.23;;;15.80;;
3177;SDS011;38141;42.666;23.344;2023-04-24T00:39:53;15.50;;;11.50;;
3177;SDS011;38141;42.666;23.344;2023-04-24T00:42:22;12.13;;;9.83;;
3177;SDS011;38141;42.666;23.344;2023-04-24T00:44:49;17.53;;;9.97;;
3177;SDS011;38141;42.666;23.344;2023-04-24T00:47:16;10.73;;;8.97;;
3177;SDS011;38141;42.666;23.344;2023-04-24T00:49:45;13.40;;;9.80;;
3177;SDS011;38141;42.666;23.344;2023-04-24T00:52:12;14.13;;;10.20;;
3177;SDS011;38141;42.666;23.344;2023-04-24T00:54:42;13.97;;;10.37;;
3177;SDS011;38141;42.666;23.344;2023-04-24T00:57:10;11.90;;;9.50;;
3177;SDS011;38141;42.666;23.344;2023-04-24T00:59:38;17.50;;;11.20;;
3177;SDS011;38141;42.666;23.344;2023-04-24T01:02:06;53.43;;;30.47;;
3177;SDS011;38141;42.666;23.344;2023-04-24T01:04:33;30.90;;;20.03;;
3177;SDS011;38141;42.666;23.344;2023-04-24T01:07:01;16.47;;;11.90;;
3177;SDS011;38141;42.666;23.344;2023-04-24T01:09:28;15.77;;;10.17;;
3177;SDS011;38141;42.666;23.344;2023-04-24T01:11:55;13.90;;;9.53;;
3177;SDS011;38141;42.666;23.344;2023-04-24T01:14:23;15.23;;;10.00;;
3177;SDS011;38141;42.666;23.344;2023-04-24T01:16:52;16.80;;;10.40;;
3177;SDS011;38141;42.666;23.344;2023-04-24T01:19:19;17.17;;;11.40;;
3177;SDS011;38141;42.666;23.344;2023-04-24T01:21:46;12.43;;;8.80;;
3177;SDS011;38141;42.666;23.344;2023-04-24T01:24:18;11.40;;;8.00;;
3177;SDS011;38141;42.666;23.344;2023-04-24T01:26:45;10.37;;;8.60;;
3177;SDS011;38141;42.666;23.344;2023-04-24T01:29:12;13.07;;;8.73;;
3177;SDS011;38141;42.666;23.344;2023-04-24T01:31:39;13.17;;;7.60;;
3177;SDS011;38141;42.666;23.344;2023-04-24T01:34:06;11.33;;;7.43;;
3177;SDS011;38141;42.666;23.344;2023-04-24T01:36:34;9.10;;;6.67;;
3177;SDS011;38141;42.666;23.344;2023-04-24T01:39:01;10.87;;;8.10;;
3177;SDS011;38141;42.666;23.344;2023-04-24T01:41:30;11.50;;;8.10;;
3177;SDS011;38141;42.666;23.344;2023-04-24T01:43:57;10.00;;;8.47;;
3177;SDS011;38141;42.666;23.344;2023-04-24T01:46:25;13.63;;;7.90;;
3177;SDS011;38141;42.666;23.344;2023-04-24T01:48:52;11.77;;;8.43;;
3177;SDS011;38141;42.666;23.344;2023-04-24T01:51:19;9.37;;;7.13;;
3177;SDS011;38141;42.666;23.344;2023-04-24T01:53:46;9.83;;;8.50;;
3177;SDS011;38141;42.666;23.344;2023-04-24T01:56:13;11.70;;;9.07;;
3177;SDS011;38141;42.666;23.344;2023-04-24T01:58:42;9.97;;;8.33;;
3177;SDS011;38141;42.666;23.344;2023-04-24T02:01:09;9.90;;;7.97;;
3177;SDS011;38141;42.666;23.344;2023-04-24T02:03:41;10.63;;;8.53;;
3177;SDS011;38141;42.666;23.344;2023-04-24T02:06:08;11.80;;;8.97;;
3177;SDS011;38141;42.666;23.344;2023-04-24T02:08:35;12.10;;;8.00;;
3177;SDS011;38141;42.666;23.344;2023-04-24T02:11:02;15.23;;;9.20;;
3177;SDS011;38141;42.666;23.344;2023-04-24T02:13:35;14.27;;;8.80;;
3177;SDS011;38141;42.666;23.344;2023-04-24T02:16:03;10.40;;;8.47;;
3177;SDS011;38141;42.666;23.344;2023-04-24T02:18:30;14.40;;;8.43;;
3177;SDS011;38141;42.666;23.344;2023-04-24T02:20:57;11.43;;;8.50;;
3177;SDS011;38141;42.666;23.344;2023-04-24T02:23:24;12.30;;;9.03;;
3177;SDS011;38141;42.666;23.344;2023-04-24T02:25:52;12.10;;;8.20;;
3177;SDS011;38141;42.666;23.344;2023-04-24T02:28:22;17.77;;;9.20;;
3177;SDS011;38141;42.666;23.344;2023-04-24T02:30:48;13.80;;;8.40;;
3177;SDS011;38141;42.666;23.344;2023-04-24T02:33:17;12.70;;;8.87;;
3177;SDS011;38141;42.666;23.344;2023-04-24T02:35:45;11.93;;;8.33;;
3177;SDS011;38141;42.666;23.344;2023-04-24T02:38:11;16.70;;;9.23;;
3177;SDS011;38141;42.666;23.344;2023-04-24T02:40:38;19.07;;;8.90;;
3177;SDS011;38141;42.666;23.344;2023-04-24T02:43:05;17.33;;;9.27;;
3177;SDS011;38141;42.666;23.344;2023-04-24T02:45:32;16.40;;;9.00;;
3177;SDS011;38141;42.666;23.344;2023-04-24T02:47:59;13.27;;;9.40;;
3177;SDS011;38141;42.666;23.344;2023-04-24T02:50:29;20.10;;;9.77;;
3177;SDS011;38141;42.666;23.344;2023-04-24T02:52:55;20.90;;;10.10;;
3177;SDS011;38141;42.666;23.344;2023-04-24T02:55:22;19.97;;;10.17;;
3177;SDS011;38141;42.666;23.344;2023-04-24T02:57:50;11.57;;;8.63;;
3177;SDS011;38141;42.666;23.344;2023-04-24T03:00:17;14.43;;;9.93;;
3177;SDS011;38141;42.666;23.344;2023-04-24T03:02:44;15.80;;;9.90;;
3177;SDS011;38141;42.666;23.344;2023-04-24T03:05:10;19.37;;;10.30;;
3177;SDS011;38141;42.666;23.344;2023-04-24T03:07:39;13.17;;;9.57;;
3177;SDS011;38141;42.666;23.344;2023-04-24T03:10:06;13.77;;;9.00;;
3177;SDS011;38141;42.666;23.344;2023-04-24T03:12:34;11.97;;;9.23;;
3177;SDS011;38141;42.666;23.344;2023-04-24T03:15:00;15.17;;;9.10;;
3177;SDS011;38141;42.666;23.344;2023-04-24T03:17:27;12.53;;;9.33;;
3177;SDS011;38141;42.666;23.344;2023-04-24T03:19:54;15.70;;;9.80;;
3177;SDS011;38141;42.666;23.344;2023-04-24T03:22:21;17.13;;;9.90;;
3177;SDS011;38141;42.666;23.344;2023-04-24T03:24:52;14.67;;;9.40;;
3177;SDS011;38141;42.666;23.344;2023-04-24T03:30:41;13.43;;;9.83;;
3177;SDS011;38141;42.666;23.344;2023-04-24T03:39:53;17.00;;;10.70;;
3177;SDS011;38141;42.666;23.344;2023-04-24T03:42:20;13.40;;;9.70;;
3177;SDS011;38141;42.666;23.344;2023-04-24T03:44:46;13.53;;;9.33;;
3177;SDS011;38141;42.666;23.344;2023-04-24T03:47:13;17.80;;;10.93;;
3177;SDS011;38141;42.666;23.344;2023-04-24T03:49:40;16.30;;;10.50;;
3177;SDS011;38141;42.666;23.344;2023-04-24T03:52:07;23.07;;;10.53;;
3177;SDS011;38141;42.666;23.344;2023-04-24T03:54:33;17.20;;;10.60;;
3177;SDS011;38141;42.666;23.344;2023-04-24T03:57:02;16.53;;;10.67;;
3177;SDS011;38141;42.666;23.344;2023-04-24T03:59:29;18.20;;;9.87;;
3177;SDS011;38141;42.666;23.344;2023-04-24T04:01:56;18.23;;;10.73;;
3177;SDS011;38141;42.666;23.344;2023-04-24T04:04:23;13.33;;;9.97;;
3177;SDS011;38141;42.666;23.344;2023-04-24T04:06:50;15.80;;;10.77;;
3177;SDS011;38141;42.666;23.344;2023-04-24T04:09:18;18.23;;;9.77;;
3177;SDS011;38141;42.666;23.344;2023-04-24T04:11:49;19.97;;;11.67;;
3177;SDS011;38141;42.666;23.344;2023-04-24T04:14:17;12.90;;;8.93;;
3177;SDS011;38141;42.666;23.344;2023-04-24T04:16:44;19.77;;;10.73;;
3177;SDS011;38141;42.666;23.344;2023-04-24T04:19:11;17.50;;;10.73;;
3177;SDS011;38141;42.666;23.344;2023-04-24T04:21:38;22.47;;;10.20;;
3177;SDS011;38141;42.666;23.344;2023-04-24T04:24:05;20.70;;;10.87;;
3177;SDS011;38141;42.666;23.344;2023-04-24T04:26:32;17.93;;;10.07;;
3177;SDS011;38141;42.666;23.344;2023-04-24T04:29:00;20.43;;;10.20;;
3177;SDS011;38141;42.666;23.344;2023-04-24T04:31:30;19.83;;;10.10;;
3177;SDS011;38141;42.666;23.344;2023-04-24T04:33:57;15.50;;;10.27;;
3177;SDS011;38141;42.666;23.344;2023-04-24T04:36:24;20.13;;;10.77;;
3177;SDS011;38141;42.666;23.344;2023-04-24T04:38:58;27.40;;;11.70;;
3177;SDS011;38141;42.666;23.344;2023-04-24T04:41:25;23.73;;;12.80;;
3177;SDS011;38141;42.666;23.344;2023-04-24T04:43:52;19.67;;;11.83;;
3177;SDS011;38141;42.666;23.344;2023-04-24T04:46:19;14.60;;;10.70;;
3177;SDS011;38141;42.666;23.344;2023-04-24T04:48:48;21.20;;;10.43;;
3177;SDS011;38141;42.666;23.344;2023-04-24T04:51:14;12.37;;;10.00;;
3177;SDS011;38141;42.666;23.344;2023-04-24T04:53:43;12.80;;;9.03;;
3177;SDS011;38141;42.666;23.344;2023-04-24T04:56:10;13.57;;;8.70;;
3177;SDS011;38141;42.666;23.344;2023-04-24T04:58:38;10.50;;;8.10;;
3177;SDS011;38141;42.666;23.344;2023-04-24T05:01:08;12.43;;;8.83;;
3177;SDS011;38141;42.666;23.344;2023-04-24T05:03:35;12.63;;;8.50;;
3177;SDS011;38141;42.666;23.344;2023-04-24T05:06:03;10.20;;;7.70;;
3177;SDS011;38141;42.666;23.344;2023-04-24T05:08:31;10.90;;;8.00;;
3177;SDS011;38141;42.666;23.344;2023-04-24T05:10:58;14.83;;;7.90;;
3177;SDS011;38141;42.666;23.344;2023-04-24T05:13:32;16.73;;;7.73;;
3177;SDS011;38141;42.666;23.344;2023-04-24T05:16:00;10.73;;;7.60;;
3177;SDS011;38141;42.666;23.344;2023-04-24T05:18:50;11.07;;;7.60;;
3177;SDS011;38141;42.666;23.344;2023-04-24T05:21:19;11.03;;;7.23;;
3177;SDS011;38141;42.666;23.344;2023-04-24T05:23:47;11.80;;;9.20;;
3177;SDS011;38141;42.666;23.344;2023-04-24T05:26:15;18.83;;;11.87;;
3177;SDS011;38141;42.666;23.344;2023-04-24T05:28:44;12.93;;;8.90;;
3177;SDS011;38141;42.666;23.344;2023-04-24T05:31:11;11.47;;;7.83;;
3177;SDS011;38141;42.666;23.344;2023-04-24T05:33:39;10.10;;;8.40;;
3177;SDS011;38141;42.666;23.344;2023-04-24T05:36:11;13.10;;;8.73;;
3177;SDS011;38141;42.666;23.344;2023-04-24T05:38:42;10.17;;;7.67;;
3177;SDS011;38141;42.666;23.344;2023-04-24T05:41:12;17.37;;;8.13;;
3177;SDS011;38141;42.666;23.344;2023-04-24T05:43:38;14.60;;;8.80;;
3177;SDS011;38141;42.666;23.344;2023-04-24T05:46:05;12.07;;;7.83;;
3177;SDS011;38141;42.666;23.344;2023-04-24T05:48:33;12.93;;;8.13;;
3177;SDS011;38141;42.666;23.344;2023-04-24T05:51:02;9.30;;;7.60;;
3177;SDS011;38141;42.666;23.344;2023-04-24T05:53:35;14.50;;;8.10;;
3177;SDS011;38141;42.666;23.344;2023-04-24T05:59:10;14.10;;;8.80;;
3177;SDS011;38141;42.666;23.344;2023-04-24T06:01:38;11.70;;;8.40;;
3177;SDS011;38141;42.666;23.344;2023-04-24T06:04:07;20.70;;;8.40;;
3177;SDS011;38141;42.666;23.344;2023-04-24T06:06:35;10.97;;;8.13;;
3177;SDS011;38141;42.666;23.344;2023-04-24T06:11:49;11.17;;;8.63;;
3177;SDS011;38141;42.666;23.344;2023-04-24T06:14:23;12.20;;;8.20;;
3177;SDS011;38141;42.666;23.344;2023-04-24T06:16:50;15.40;;;8.70;;
3177;SDS011;38141;42.666;23.344;2023-04-24T06:19:17;15.37;;;9.33;;
3177;SDS011;38141;42.666;23.344;2023-04-24T06:21:44;16.37;;;9.77;;
3177;SDS011;38141;42.666;23.344;2023-04-24T06:24:13;11.03;;;9.00;;
3177;SDS011;38141;42.666;23.344;2023-04-24T06:26:41;11.80;;;9.40;;
3177;SDS011;38141;42.666;23.344;2023-04-24T06:29:08;13.48;;;10.57;;
3177;SDS011;38141;42.666;23.344;2023-04-24T06:31:41;13.65;;;9.65;;
3177;SDS011;38141;42.666;23.344;2023-04-24T06:34:07;11.70;;;9.13;;
3177;SDS011;38141;42.666;23.344;2023-04-24T06:36:34;13.65;;;10.23;;
3177;SDS011;38141;42.666;23.344;2023-04-24T06:39:01;13.80;;;10.50;;
3177;SDS011;38141;42.666;23.344;2023-04-24T06:41:28;11.33;;;9.70;;
3177;SDS011;38141;42.666;23.344;2023-04-24T06:43:55;17.53;;;10.57;;
3177;SDS011;38141;42.666;23.344;2023-04-24T06:46:22;13.63;;;9.97;;
3177;SDS011;38141;42.666;23.344;2023-04-24T06:48:52;13.40;;;9.97;;
3177;SDS011;38141;42.666;23.344;2023-04-24T06:51:21;14.30;;;9.17;;
3177;SDS011;38141;42.666;23.344;2023-04-24T06:53:48;16.53;;;9.77;;
3177;SDS011;38141;42.666;23.344;2023-04-24T06:56:16;15.10;;;10.17;;
3177;SDS011;38141;42.666;23.344;2023-04-24T06:58:42;14.87;;;9.27;;
3177;SDS011;38141;42.666;23.344;2023-04-24T07:01:10;11.00;;;9.60;;
3177;SDS011;38141;42.666;23.344;2023-04-24T07:03:38;13.80;;;9.53;;
3177;SDS011;38141;42.666;23.344;2023-04-24T07:06:06;12.20;;;9.57;;
3177;SDS011;38141;42.666;23.344;2023-04-24T07:08:33;13.93;;;9.60;;
3177;SDS011;38141;42.666;23.344;2023-04-24T07:11:00;15.20;;;9.57;;
3177;SDS011;38141;42.666;23.344;2023-04-24T07:13:27;12.23;;;9.97;;
3177;SDS011;38141;42.666;23.344;2023-04-24T07:15:54;16.23;;;9.90;;
3177;SDS011;38141;42.666;23.344;2023-04-24T07:18:21;12.27;;;9.60;;
3177;SDS011;38141;42.666;23.344;2023-04-24T07:20:48;16.40;;;10.10;;
3177;SDS011;38141;42.666;23.344;2023-04-24T07:23:17;14.40;;;10.03;;
3177;SDS011;38141;42.666;23.344;2023-04-24T07:25:46;10.10;;;8.83;;
3177;SDS011;38141;42.666;23.344;2023-04-24T07:28:13;12.90;;;9.40;;
3177;SDS011;38141;42.666;23.344;2023-04-24T07:30:40;13.03;;;9.33;;
3177;SDS011;38141;42.666;23.344;2023-04-24T07:33:06;12.37;;;9.60;;
3177;SDS011;38141;42.666;23.344;2023-04-24T07:35:36;12.53;;;9.80;;
3177;SDS011;38141;42.666;23.344;2023-04-24T07:38:03;12.37;;;8.17;;
3177;SDS011;38141;42.666;23.344;2023-04-24T07:40:31;10.73;;;8.60;;
3177;SDS011;38141;42.666;23.344;2023-04-24T07:42:58;12.20;;;8.65;;
3177;SDS011;38141;42.666;23.344;2023-04-24T07:45:25;10.98;;;8.68;;
3177;SDS011;38141;42.666;23.344;2023-04-24T07:47:53;12.43;;;9.02;;
3177;SDS011;38141;42.666;23.344;2023-04-24T07:50:20;10.13;;;8.80;;
3177;SDS011;38141;42.666;23.344;2023-04-24T07:52:47;9.50;;;6.78;;
3177;SDS011;38141;42.666;23.344;2023-04-24T07:55:14;9.68;;;8.43;;
3177;SDS011;38141;42.666;23.344;2023-04-24T07:57:42;9.98;;;7.50;;
3177;SDS011;38141;42.666;23.344;2023-04-24T08:00:09;9.30;;;7.85;;
3177;SDS011;38141;42.666;23.344;2023-04-24T08:02:37;11.60;;;8.80;;
3177;SDS011;38141;42.666;23.344;2023-04-24T08:05:04;12.30;;;8.75;;
3177;SDS011;38141;42.666;23.344;2023-04-24T08:07:31;10.18;;;8.90;;
3177;SDS011;38141;42.666;23.344;2023-04-24T08:09:58;11.20;;;8.80;;
3177;SDS011;38141;42.666;23.344;2023-04-24T08:12:25;10.25;;;8.82;;
3177;SDS011;38141;42.666;23.344;2023-04-24T08:17:36;12.60;;;9.53;;
3177;SDS011;38141;42.666;23.344;2023-04-24T08:20:03;9.50;;;8.30;;
3177;SDS011;38141;42.666;23.344;2023-04-24T08:22:32;12.43;;;7.45;;
3177;SDS011;38141;42.666;23.344;2023-04-24T08:24:59;12.90;;;7.93;;
3177;SDS011;38141;42.666;23.344;2023-04-24T08:27:26;9.73;;;7.15;;
3177;SDS011;38141;42.666;23.344;2023-04-24T08:29:53;10.20;;;8.00;;
3177;SDS011;38141;42.666;23.344;2023-04-24T08:32:22;10.55;;;8.35;;
3177;SDS011;38141;42.666;23.344;2023-04-24T08:34:49;12.85;;;8.48;;
3177;SDS011;38141;42.666;23.344;2023-04-24T08:37:17;9.52;;;7.72;;
3177;SDS011;38141;42.666;23.344;2023-04-24T08:39:44;10.23;;;8.00;;
3177;SDS011;38141;42.666;23.344;2023-04-24T08:42:11;10.30;;;8.05;;
3177;SDS011;38141;42.666;23.344;2023-04-24T08:44:40;9.25;;;7.43;;
3177;SDS011;38141;42.666;23.344;2023-04-24T08:47:07;8.85;;;7.25;;
3177;SDS011;38141;42.666;23.344;2023-04-24T08:49:37;14.13;;;7.25;;
3177;SDS011;38141;42.666;23.344;2023-04-24T08:52:05;8.57;;;6.88;;
3177;SDS011;38141;42.666;23.344;2023-04-24T08:54:33;9.98;;;6.50;;
3177;SDS011;38141;42.666;23.344;2023-04-24T08:57:01;9.27;;;7.10;;
3177;SDS011;38141;42.666;23.344;2023-04-24T08:59:29;8.77;;;6.72;;
3177;SDS011;38141;42.666;23.344;2023-04-24T09:01:57;9.48;;;7.00;;
3177;SDS011;38141;42.666;23.344;2023-04-24T09:04:24;7.95;;;6.28;;
3177;SDS011;38141;42.666;23.344;2023-04-24T09:06:53;8.45;;;6.40;;
3177;SDS011;38141;42.666;23.344;2023-04-24T09:09:22;10.55;;;6.35;;
3177;SDS011;38141;42.666;23.344;2023-04-24T09:11:50;10.80;;;6.63;;
3177;SDS011;38141;42.666;23.344;2023-04-24T09:14:19;7.25;;;6.40;;
3177;SDS011;38141;42.666;23.344;2023-04-24T09:16:50;6.15;;;5.63;;
3177;SDS011;38141;42.666;23.344;2023-04-24T09:19:17;7.78;;;5.82;;
3177;SDS011;38141;42.666;23.344;2023-04-24T09:21:46;10.18;;;5.93;;
3177;SDS011;38141;42.666;23.344;2023-04-24T09:24:16;8.60;;;5.97;;
3177;SDS011;38141;42.666;23.344;2023-04-24T09:26:59;8.90;;;6.30;;
3177;SDS011;38141;42.666;23.344;2023-04-24T09:29:27;11.80;;;6.00;;
3177;SDS011;38141;42.666;23.344;2023-04-24T09:31:54;7.05;;;6.35;;
3177;SDS011;38141;42.666;23.344;2023-04-24T09:37:01;10.93;;;6.07;;
3177;SDS011;38141;42.666;23.344;2023-04-24T09:39:30;12.45;;;6.38;;
3177;SDS011;38141;42.666;23.344;2023-04-24T09:42:04;7.60;;;6.38;;
3177;SDS011;38141;42.666;23.344;2023-04-24T09:44:34;6.72;;;5.65;;
3177;SDS011;38141;42.666;23.344;2023-04-24T09:47:01;8.50;;;6.22;;
3177;SDS011;38141;42.666;23.344;2023-04-24T09:49:28;7.55;;;5.80;;
3177;SDS011;38141;42.666;23.344;2023-04-24T09:52:02;6.95;;;5.60;;
3177;SDS011;38141;42.666;23.344;2023-04-24T09:54:31;8.48;;;6.32;;
3177;SDS011;38141;42.666;23.344;2023-04-24T09:56:58;8.23;;;6.15;;
3177;SDS011;38141;42.666;23.344;2023-04-24T10:02:49;8.90;;;5.57;;
3177;SDS011;38141;42.666;23.344;2023-04-24T10:05:32;5.18;;;4.50;;
3177;SDS011;38141;42.666;23.344;2023-04-24T10:08:01;6.22;;;5.63;;
3177;SDS011;38141;42.666;23.344;2023-04-24T10:10:32;5.80;;;5.30;;
3177;SDS011;38141;42.666;23.344;2023-04-24T10:13:00;9.25;;;5.63;;
3177;SDS011;38141;42.666;23.344;2023-04-24T10:15:27;6.35;;;5.65;;
3177;SDS011;38141;42.666;23.344;2023-04-24T10:17:54;7.72;;;5.70;;
3177;SDS011;38141;42.666;23.344;2023-04-24T10:20:24;6.57;;;5.90;;
3177;SDS011;38141;42.666;23.344;2023-04-24T10:22:52;12.43;;;6.13;;
3177;SDS011;38141;42.666;23.344;2023-04-24T10:25:20;7.07;;;6.22;;
3177;SDS011;38141;42.666;23.344;2023-04-24T10:27:50;7.88;;;6.20;;
3177;SDS011;38141;42.666;23.344;2023-04-24T10:30:19;18.17;;;9.88;;
3177;SDS011;38141;42.666;23.344;2023-04-24T10:32:46;15.70;;;12.98;;
3177;SDS011;38141;42.666;23.344;2023-04-24T10:35:13;6.97;;;6.22;;
3177;SDS011;38141;42.666;23.344;2023-04-24T10:37:42;7.22;;;6.47;;
3177;SDS011;38141;42.666;23.344;2023-04-24T10:40:16;6.53;;;5.68;;
3177;SDS011;38141;42.666;23.344;2023-04-24T10:42:46;7.63;;;5.82;;
3177;SDS011;38141;42.666;23.344;2023-04-24T10:45:18;11.00;;;6.57;;
3177;SDS011;38141;42.666;23.344;2023-04-24T10:47:57;12.77;;;6.90;;
3177;SDS011;38141;42.666;23.344;2023-04-24T10:50:26;6.88;;;6.28;;
3177;SDS011;38141;42.666;23.344;2023-04-24T10:52:55;10.27;;;6.68;;
3177;SDS011;38141;42.666;23.344;2023-04-24T10:55:41;7.18;;;5.97;;
3177;SDS011;38141;42.666;23.344;2023-04-24T10:58:10;7.80;;;6.30;;
3177;SDS011;38141;42.666;23.344;2023-04-24T11:00:39;7.93;;;6.35;;
3177;SDS011;38141;42.666;23.344;2023-04-24T11:06:02;9.13;;;5.95;;
3177;SDS011;38141;42.666;23.344;2023-04-24T11:08:30;8.85;;;7.22;;
3177;SDS011;38141;42.666;23.344;2023-04-24T11:11:00;7.57;;;5.68;;
3177;SDS011;38141;42.666;23.344;2023-04-24T11:16:33;8.05;;;6.15;;
3177;SDS011;38141;42.666;23.344;2023-04-24T11:19:04;7.07;;;6.07;;
3177;SDS011;38141;42.666;23.344;2023-04-24T11:21:33;9.10;;;6.57;;
3177;SDS011;38141;42.666;23.344;2023-04-24T11:26:54;7.25;;;6.32;;
3177;SDS011;38141;42.666;23.344;2023-04-24T11:29:23;10.80;;;6.50;;
3177;SDS011;38141;42.666;23.344;2023-04-24T11:32:15;11.43;;;5.83;;
3177;SDS011;38141;42.666;23.344;2023-04-24T11:34:46;12.37;;;7.10;;
3177;SDS011;38141;42.666;23.344;2023-04-24T11:37:14;10.33;;;5.80;;
3177;SDS011;38141;42.666;23.344;2023-04-24T11:39:41;9.30;;;5.40;;
3177;SDS011;38141;42.666;23.344;2023-04-24T11:42:15;5.23;;;4.73;;
3177;SDS011;38141;42.666;23.344;2023-04-24T11:44:42;6.97;;;5.03;;
3177;SDS011;38141;42.666;23.344;2023-04-24T11:47:09;6.30;;;5.70;;
3177;SDS011;38141;42.666;23.344;2023-04-24T11:49:45;5.40;;;4.53;;
3177;SDS011;38141;42.666;23.344;2023-04-24T11:52:14;5.17;;;4.67;;
3177;SDS011;38141;42.666;23.344;2023-04-24T11:54:47;6.43;;;5.20;;
3177;SDS011;38141;42.666;23.344;2023-04-24T11:57:26;5.97;;;5.37;;
3177;SDS011;38141;42.666;23.344;2023-04-24T11:59:58;5.83;;;5.30;;
3177;SDS011;38141;42.666;23.344;2023-04-24T12:02:25;6.40;;;5.80;;
3177;SDS011;38141;42.666;23.344;2023-04-24T12:04:54;7.10;;;6.40;;
3177;SDS011;38141;42.666;23.344;2023-04-24T12:07:22;6.10;;;5.60;;
3177;SDS011;38141;42.666;23.344;2023-04-24T12:09:54;7.13;;;5.53;;
3177;SDS011;38141;42.666;23.344;2023-04-24T12:12:24;6.10;;;5.47;;
3177;SDS011;38141;42.666;23.344;2023-04-24T12:14:53;8.10;;;5.80;;
3177;SDS011;38141;42.666;23.344;2023-04-24T12:17:24;10.00;;;6.03;;
3177;SDS011;38141;42.666;23.344;2023-04-24T12:19:56;8.80;;;6.60;;
3177;SDS011;38141;42.666;23.344;2023-04-24T12:22:26;6.40;;;5.80;;
3177;SDS011;38141;42.666;23.344;2023-04-24T12:24:56;7.67;;;5.60;;
3177;SDS011;38141;42.666;23.344;2023-04-24T12:27:31;6.13;;;5.27;;
3177;SDS011;38141;42.666;23.344;2023-04-24T12:29:59;9.07;;;5.40;;
3177;SDS011;38141;42.666;23.344;2023-04-24T12:38:38;15.80;;;11.03;;
3177;SDS011;38141;42.666;23.344;2023-04-24T12:41:10;5.80;;;5.13;;
3177;SDS011;38141;42.666;23.344;2023-04-24T12:43:38;7.23;;;5.63;;
3177;SDS011;38141;42.666;23.344;2023-04-24T12:46:04;8.77;;;5.40;;
3177;SDS011;38141;42.666;23.344;2023-04-24T12:48:34;5.37;;;4.90;;
3177;SDS011;38141;42.666;23.344;2023-04-24T12:51:01;6.13;;;5.47;;
3177;SDS011;38141;42.666;23.344;2023-04-24T12:53:29;6.93;;;5.50;;
3177;SDS011;38141;42.666;23.344;2023-04-24T12:55:56;8.00;;;6.20;;
3177;SDS011;38141;42.666;23.344;2023-04-24T12:58:23;7.07;;;5.83;;
3177;SDS011;38141;42.666;23.344;2023-04-24T13:00:50;8.83;;;5.50;;
3177;SDS011;38141;42.666;23.344;2023-04-24T13:03:17;10.50;;;5.97;;
3177;SDS011;38141;42.666;23.344;2023-04-24T13:05:44;7.10;;;5.70;;
3177;SDS011;38141;42.666;23.344;2023-04-24T13:08:11;11.10;;;6.10;;
3177;SDS011;38141;42.666;23.344;2023-04-24T13:10:40;6.47;;;5.80;;
3177;SDS011;38141;42.666;23.344;2023-04-24T13:13:07;7.30;;;6.50;;
3177;SDS011;38141;42.666;23.344;2023-04-24T13:15:34;6.80;;;6.20;;
3177;SDS011;38141;42.666;23.344;2023-04-24T13:18:01;10.10;;;6.37;;
3177;SDS011;38141;42.666;23.344;2023-04-24T13:20:28;7.23;;;6.50;;
3177;SDS011;38141;42.666;23.344;2023-04-24T13:22:55;7.30;;;5.97;;
3177;SDS011;38141;42.666;23.344;2023-04-24T13:25:22;7.40;;;6.60;;
3177;SDS011;38141;42.666;23.344;2023-04-24T13:27:59;10.50;;;6.53;;
3177;SDS011;38141;42.666;23.344;2023-04-24T13:30:27;9.30;;;6.40;;
3177;SDS011;38141;42.666;23.344;2023-04-24T13:32:53;11.20;;;6.90;;
3177;SDS011;38141;42.666;23.344;2023-04-24T13:35:20;7.27;;;6.57;;
3177;SDS011;38141;42.666;23.344;2023-04-24T13:37:47;7.90;;;7.10;;
3177;SDS011;38141;42.666;23.344;2023-04-24T13:40:16;8.67;;;6.63;;
3177;SDS011;38141;42.666;23.344;2023-04-24T13:42:43;8.93;;;6.53;;
3177;SDS011;38141;42.666;23.344;2023-04-24T13:45:11;6.90;;;6.00;;
3177;SDS011;38141;42.666;23.344;2023-04-24T13:47:38;7.50;;;6.40;;
3177;SDS011;38141;42.666;23.344;2023-04-24T13:50:06;13.80;;;7.30;;
3177;SDS011;38141;42.666;23.344;2023-04-24T13:52:34;9.03;;;6.60;;
3177;SDS011;38141;42.666;23.344;2023-04-24T13:55:01;8.87;;;6.77;;
3177;SDS011;38141;42.666;23.344;2023-04-24T13:57:27;7.97;;;6.50;;
3177;SDS011;38141;42.666;23.344;2023-04-24T13:59:56;9.47;;;6.43;;
3177;SDS011;38141;42.666;23.344;2023-04-24T14:02:28;8.53;;;6.37;;
3177;SDS011;38141;42.666;23.344;2023-04-24T14:04:55;8.67;;;6.40;;
3177;SDS011;38141;42.666;23.344;2023-04-24T14:07:22;6.33;;;5.50;;
3177;SDS011;38141;42.666;23.344;2023-04-24T14:09:56;8.73;;;6.20;;
3177;SDS011;38141;42.666;23.344;2023-04-24T14:12:23;7.20;;;5.97;;
3177;SDS011;38141;42.666;23.344;2023-04-24T14:14:50;7.27;;;6.40;;
3177;SDS011;38141;42.666;23.344;2023-04-24T14:17:17;8.40;;;6.33;;
3177;SDS011;38141;42.666;23.344;2023-04-24T14:19:45;7.47;;;6.57;;
3177;SDS011;38141;42.666;23.344;2023-04-24T14:22:12;7.40;;;6.57;;
3177;SDS011;38141;42.666;23.344;2023-04-24T14:24:39;8.90;;;7.47;;
3177;SDS011;38141;42.666;23.344;2023-04-24T14:27:06;8.27;;;6.87;;
3177;SDS011;38141;42.666;23.344;2023-04-24T14:29:33;7.60;;;6.37;;
3177;SDS011;38141;42.666;23.344;2023-04-24T14:32:00;9.70;;;5.73;;
3177;SDS011;38141;42.666;23.344;2023-04-24T14:34:26;6.17;;;5.40;;
3177;SDS011;38141;42.666;23.344;2023-04-24T14:36:55;5.73;;;5.13;;
3177;SDS011;38141;42.666;23.344;2023-04-24T14:39:22;6.00;;;5.40;;
3177;SDS011;38141;42.666;23.344;2023-04-24T14:45:11;7.20;;;6.03;;
3177;SDS011;38141;42.666;23.344;2023-04-24T14:50:59;7.83;;;5.50;;
3177;SDS011;38141;42.666;23.344;2023-04-24T14:53:28;8.70;;;6.53;;
3177;SDS011;38141;42.666;23.344;2023-04-24T14:55:55;8.60;;;5.63;;
3177;SDS011;38141;42.666;23.344;2023-04-24T14:58:22;6.93;;;5.20;;
3177;SDS011;38141;42.666;23.344;2023-04-24T15:00:48;8.10;;;5.80;;
3177;SDS011;38141;42.666;23.344;2023-04-24T15:03:17;5.90;;;5.20;;
3177;SDS011;38141;42.666;23.344;2023-04-24T15:05:45;8.23;;;6.00;;
3177;SDS011;38141;42.666;23.344;2023-04-24T15:08:12;9.27;;;7.37;;
3177;SDS011;38141;42.666;23.344;2023-04-24T15:10:41;8.37;;;7.27;;
3177;SDS011;38141;42.666;23.344;2023-04-24T15:13:08;9.97;;;6.67;;
3177;SDS011;38141;42.666;23.344;2023-04-24T15:15:34;8.10;;;7.30;;
3177;SDS011;38141;42.666;23.344;2023-04-24T15:18:04;7.60;;;6.90;;
3177;SDS011;38141;42.666;23.344;2023-04-24T15:20:33;9.23;;;8.00;;
3177;SDS011;38141;42.666;23.344;2023-04-24T15:23:00;7.43;;;6.63;;
3177;SDS011;38141;42.666;23.344;2023-04-24T15:25:27;8.83;;;7.43;;
3177;SDS011;38141;42.666;23.344;2023-04-24T15:27:55;9.67;;;7.20;;
3177;SDS011;38141;42.666;23.344;2023-04-24T15:30:25;8.70;;;7.80;;